sensor_id;sensor_type;location;lat;lon;timestamp;P1;durP1;ratioP1;P2;durP2;ratioP2
75423;SDS011;64005;55.160;36.002;2023-07-13T00:03:26;3.45;;;1.10;;
75423;SDS011;64005;55.160;36.002;2023-07-13T00:28:05;4.50;;;1.42;;
75423;SDS011;64005;55.160;36.002;2023-07-13T00:30:33;3.60;;;1.35;;
75423;SDS011;64005;55.160;36.002;2023-07-13T01:30:13;4.72;;;1.65;;
75423;SDS011;64005;55.160;36.002;2023-07-13T01:44:03;4.57;;;1.40;;
75423;SDS011;64005;55.160;36.002;2023-07-13T01:59:29;4.10;;;1.45;;
75423;SDS011;64005;55.160;36.002;2023-07-13T02:12:19;5.47;;;1.40;;
75423;SDS011;64005;55.160;36.002;2023-07-13T02:14:48;5.03;;;1.50;;
75423;SDS011;64005;55.160;36.002;2023-07-13T02:17:16;3.80;;;1.38;;
75423;SDS011;64005;55.160;36.002;2023-07-13T02:30:06;3.30;;;1.27;;
75423;SDS011;64005;55.160;36.002;2023-07-13T02:39:02;4.60;;;1.90;;
75423;SDS011;64005;55.160;36.002;2023-07-13T02:46:43;5.03;;;1.25;;
75423;SDS011;64005;55.160;36.002;2023-07-13T03:07:31;5.85;;;1.40;;
75423;SDS011;64005;55.160;36.002;2023-07-13T03:12:33;3.55;;;1.48;;
75423;SDS011;64005;55.160;36.002;2023-07-13T03:25:23;5.35;;;1.63;;
75423;SDS011;64005;55.160;36.002;2023-07-13T03:27:51;4.47;;;1.40;;
75423;SDS011;64005;55.160;36.002;2023-07-13T03:30:18;4.18;;;1.23;;
75423;SDS011;64005;55.160;36.002;2023-07-13T03:32:46;6.57;;;1.42;;
75423;SDS011;64005;55.160;36.002;2023-07-13T03:40:38;3.67;;;1.50;;
75423;SDS011;64005;55.160;36.002;2023-07-13T03:48:58;5.22;;;1.52;;
75423;SDS011;64005;55.160;36.002;2023-07-13T04:08:50;4.63;;;1.85;;
75423;SDS011;64005;55.160;36.002;2023-07-13T04:19:05;4.55;;;1.42;;
75423;SDS011;64005;55.160;36.002;2023-07-13T07:39:00;4.53;;;1.23;;
75423;SDS011;64005;55.160;36.002;2023-07-13T11:43:06;2.97;;;1.10;;
75423;SDS011;64005;55.160;36.002;2023-07-13T11:50:49;4.10;;;1.20;;
75423;SDS011;64005;55.160;36.002;2023-07-13T11:53:32;3.85;;;1.40;;
75423;SDS011;64005;55.160;36.002;2023-07-13T13:13:12;4.10;;;1.00;;
75423;SDS011;64005;55.160;36.002;2023-07-13T13:15:39;4.15;;;1.20;;
75423;SDS011;64005;55.160;36.002;2023-07-13T13:51:54;4.00;;;1.50;;
75423;SDS011;64005;55.160;36.002;2023-07-13T15:07:03;5.13;;;1.70;;
75423;SDS011;64005;55.160;36.002;2023-07-13T15:09:31;4.85;;;1.58;;
75423;SDS011;64005;55.160;36.002;2023-07-13T15:45:34;6.53;;;1.70;;
75423;SDS011;64005;55.160;36.002;2023-07-13T15:51:19;4.07;;;1.75;;
75423;SDS011;64005;55.160;36.002;2023-07-13T16:01:37;5.65;;;1.40;;
75423;SDS011;64005;55.160;36.002;2023-07-13T19:05:44;6.18;;;2.38;;
75423;SDS011;64005;55.160;36.002;2023-07-13T19:08:14;7.35;;;2.70;;
75423;SDS011;64005;55.160;36.002;2023-07-13T19:10:45;6.38;;;2.60;;
75423;SDS011;64005;55.160;36.002;2023-07-13T19:13:17;7.78;;;2.80;;
75423;SDS011;64005;55.160;36.002;2023-07-13T19:15:48;6.60;;;2.33;;
75423;SDS011;64005;55.160;36.002;2023-07-13T19:18:17;6.40;;;2.70;;
75423;SDS011;64005;55.160;36.002;2023-07-13T19:20:48;6.43;;;2.33;;
75423;SDS011;64005;55.160;36.002;2023-07-13T19:23:21;8.48;;;3.70;;
75423;SDS011;64005;55.160;36.002;2023-07-13T19:25:53;5.78;;;2.20;;
75423;SDS011;64005;55.160;36.002;2023-07-13T19:28:25;7.15;;;2.67;;
75423;SDS011;64005;55.160;36.002;2023-07-13T19:30:57;5.53;;;2.90;;
75423;SDS011;64005;55.160;36.002;2023-07-13T19:33:25;6.13;;;2.55;;
75423;SDS011;64005;55.160;36.002;2023-07-13T19:35:54;6.45;;;2.67;;
75423;SDS011;64005;55.160;36.002;2023-07-13T19:38:22;6.03;;;2.20;;
75423;SDS011;64005;55.160;36.002;2023-07-13T19:40:52;6.28;;;2.67;;
75423;SDS011;64005;55.160;36.002;2023-07-13T19:43:21;8.43;;;2.72;;
75423;SDS011;64005;55.160;36.002;2023-07-13T19:45:48;6.30;;;2.95;;
75423;SDS011;64005;55.160;36.002;2023-07-13T19:48:19;8.65;;;2.35;;
75423;SDS011;64005;55.160;36.002;2023-07-13T19:50:46;5.97;;;2.50;;
75423;SDS011;64005;55.160;36.002;2023-07-13T19:53:17;9.35;;;2.20;;
75423;SDS011;64005;55.160;36.002;2023-07-13T19:55:46;5.85;;;2.63;;
75423;SDS011;64005;55.160;36.002;2023-07-13T19:58:13;12.63;;;4.47;;
75423;SDS011;64005;55.160;36.002;2023-07-13T20:00:42;7.50;;;2.97;;
75423;SDS011;64005;55.160;36.002;2023-07-13T20:03:09;9.20;;;3.10;;
75423;SDS011;64005;55.160;36.002;2023-07-13T20:05:37;6.82;;;3.25;;
75423;SDS011;64005;55.160;36.002;2023-07-13T20:08:10;8.32;;;2.83;;
75423;SDS011;64005;55.160;36.002;2023-07-13T20:10:47;7.55;;;2.85;;
75423;SDS011;64005;55.160;36.002;2023-07-13T20:13:16;6.53;;;2.58;;
75423;SDS011;64005;55.160;36.002;2023-07-13T20:15:47;6.45;;;2.90;;
75423;SDS011;64005;55.160;36.002;2023-07-13T20:18:15;9.43;;;2.90;;
75423;SDS011;64005;55.160;36.002;2023-07-13T20:20:45;7.20;;;2.72;;
75423;SDS011;64005;55.160;36.002;2023-07-13T20:23:14;6.13;;;2.42;;
75423;SDS011;64005;55.160;36.002;2023-07-13T20:25:44;5.25;;;2.40;;
75423;SDS011;64005;55.160;36.002;2023-07-13T20:28:15;6.53;;;2.83;;
75423;SDS011;64005;55.160;36.002;2023-07-13T20:30:43;9.25;;;2.80;;
75423;SDS011;64005;55.160;36.002;2023-07-13T20:48:46;6.85;;;2.42;;
75423;SDS011;64005;55.160;36.002;2023-07-13T20:51:15;8.55;;;3.08;;
75423;SDS011;64005;55.160;36.002;2023-07-13T21:06:44;6.82;;;2.70;;
75423;SDS011;64005;55.160;36.002;2023-07-13T21:09:14;7.78;;;2.50;;
75423;SDS011;64005;55.160;36.002;2023-07-13T21:27:17;6.95;;;2.50;;
75423;SDS011;64005;55.160;36.002;2023-07-13T21:29:44;5.63;;;2.42;;
75423;SDS011;64005;55.160;36.002;2023-07-13T21:32:14;5.30;;;2.67;;
75423;SDS011;64005;55.160;36.002;2023-07-13T21:34:45;6.53;;;2.80;;
75423;SDS011;64005;55.160;36.002;2023-07-13T21:37:15;7.93;;;3.20;;
75423;SDS011;64005;55.160;36.002;2023-07-13T21:39:45;6.10;;;2.83;;
75423;SDS011;64005;55.160;36.002;2023-07-13T21:45:30;6.28;;;2.42;;
75423;SDS011;64005;55.160;36.002;2023-07-13T21:47:57;5.78;;;2.78;;
75423;SDS011;64005;55.160;36.002;2023-07-13T21:53:01;7.07;;;2.22;;
75423;SDS011;64005;55.160;36.002;2023-07-13T21:55:55;6.82;;;2.25;;
75423;SDS011;64005;55.160;36.002;2023-07-13T22:03:36;6.30;;;2.50;;
75423;SDS011;64005;55.160;36.002;2023-07-13T22:06:04;8.88;;;2.72;;
75423;SDS011;64005;55.160;36.002;2023-07-13T22:08:37;5.28;;;2.17;;
75423;SDS011;64005;55.160;36.002;2023-07-13T22:11:08;9.52;;;3.03;;
75423;SDS011;64005;55.160;36.002;2023-07-13T22:16:14;5.78;;;2.63;;
75423;SDS011;64005;55.160;36.002;2023-07-13T22:18:46;6.15;;;2.03;;
75423;SDS011;64005;55.160;36.002;2023-07-13T22:21:15;8.95;;;2.70;;
75423;SDS011;64005;55.160;36.002;2023-07-13T22:28:54;6.28;;;2.53;;
75423;SDS011;64005;55.160;36.002;2023-07-13T22:31:30;5.60;;;2.17;;
75423;SDS011;64005;55.160;36.002;2023-07-13T22:36:46;7.72;;;2.50;;
75423;SDS011;64005;55.160;36.002;2023-07-13T22:41:57;6.40;;;2.72;;
75423;SDS011;64005;55.160;36.002;2023-07-13T22:44:25;7.78;;;2.63;;
75423;SDS011;64005;55.160;36.002;2023-07-13T22:46:53;5.70;;;2.50;;
75423;SDS011;64005;55.160;36.002;2023-07-13T22:49:23;6.25;;;2.50;;
75423;SDS011;64005;55.160;36.002;2023-07-13T22:51:55;6.70;;;2.58;;
75423;SDS011;64005;55.160;36.002;2023-07-13T22:54:24;5.88;;;2.55;;
75423;SDS011;64005;55.160;36.002;2023-07-13T22:56:51;6.65;;;3.15;;
75423;SDS011;64005;55.160;36.002;2023-07-13T23:02:15;4.68;;;2.33;;
75423;SDS011;64005;55.160;36.002;2023-07-13T23:04:44;9.15;;;2.80;;
75423;SDS011;64005;55.160;36.002;2023-07-13T23:07:16;6.75;;;2.53;;
75423;SDS011;64005;55.160;36.002;2023-07-13T23:09:45;5.65;;;2.25;;
75423;SDS011;64005;55.160;36.002;2023-07-13T23:12:12;4.97;;;2.40;;
75423;SDS011;64005;55.160;36.002;2023-07-13T23:14:40;6.60;;;2.40;;
75423;SDS011;64005;55.160;36.002;2023-07-13T23:17:09;8.32;;;2.42;;
75423;SDS011;64005;55.160;36.002;2023-07-13T23:19:38;6.30;;;2.60;;
75423;SDS011;64005;55.160;36.002;2023-07-13T23:22:08;5.63;;;2.33;;
75423;SDS011;64005;55.160;36.002;2023-07-13T23:24:50;5.47;;;2.50;;
75423;SDS011;64005;55.160;36.002;2023-07-13T23:27:17;6.43;;;2.60;;
75423;SDS011;64005;55.160;36.002;2023-07-13T23:29:45;6.70;;;2.72;;
75423;SDS011;64005;55.160;36.002;2023-07-13T23:32:13;6.47;;;2.45;;
75423;SDS011;64005;55.160;36.002;2023-07-13T23:34:40;6.75;;;1.70;;
75423;SDS011;64005;55.160;36.002;2023-07-13T23:37:13;9.90;;;3.90;;
75423;SDS011;64005;55.160;36.002;2023-07-13T23:39:43;6.57;;;2.13;;
75423;SDS011;64005;55.160;36.002;2023-07-13T23:42:11;5.82;;;2.72;;
75423;SDS011;64005;55.160;36.002;2023-07-13T23:44:38;6.38;;;2.92;;
75423;SDS011;64005;55.160;36.002;2023-07-13T23:47:06;6.00;;;2.45;;
75423;SDS011;64005;55.160;36.002;2023-07-13T23:49:35;6.38;;;2.45;;
75423;SDS011;64005;55.160;36.002;2023-07-13T23:52:03;4.93;;;1.98;;
75423;SDS011;64005;55.160;36.002;2023-07-13T23:54:39;5.40;;;2.30;;
75423;SDS011;64005;55.160;36.002;2023-07-13T23:57:08;5.65;;;2.58;;
75423;SDS011;64005;55.160;36.002;2023-07-13T23:59:35;9.90;;;2.90;;
